createdAt,value
2019-05-05T00:00:17.113Z,0
2019-05-05T00:01:19.173Z,0
2019-05-05T00:02:21.260Z,0
2019-05-05T00:03:24.949Z,0
2019-05-05T00:04:27.086Z,0
2019-05-05T00:05:29.167Z,0
2019-05-05T00:06:31.234Z,0
2019-05-05T00:07:35.532Z,0
2019-05-05T00:08:37.654Z,0
2019-05-05T00:09:39.711Z,0
2019-05-05T00:10:42.131Z,0
2019-05-05T00:11:46.510Z,0
2019-05-05T00:12:48.574Z,0
2019-05-05T00:13:50.678Z,0
2019-05-05T00:14:54.671Z,0
2019-05-05T00:15:56.826Z,0
2019-05-05T00:16:58.945Z,0
2019-05-05T00:18:00.981Z,0
2019-05-05T00:19:04.742Z,0
2019-05-05T00:20:07.331Z,0
2019-05-05T00:21:09.404Z,0
2019-05-05T00:22:11.493Z,0
2019-05-05T00:23:14.544Z,0
2019-05-05T00:24:16.750Z,0
2019-05-05T00:25:19.392Z,0
2019-05-05T00:26:21.784Z,0
2019-05-05T00:27:26.255Z,0
2019-05-05T00:28:28.305Z,0
2019-05-05T00:29:30.429Z,0
2019-05-05T00:30:34.290Z,0
2019-05-05T00:31:36.789Z,0
2019-05-05T00:32:38.855Z,0
2019-05-05T00:33:40.923Z,0
2019-05-05T00:34:44.438Z,0
2019-05-05T00:35:46.590Z,0
2019-05-05T00:36:48.724Z,0
2019-05-05T00:37:51.077Z,0
2019-05-05T00:38:55.727Z,0
2019-05-05T00:39:58.176Z,0
2019-05-05T00:41:00.250Z,0
2019-05-05T00:42:02.320Z,0
2019-05-05T00:43:07.071Z,0
2019-05-05T00:44:09.573Z,0
2019-05-05T00:45:11.620Z,0
2019-05-05T00:46:16.586Z,0
2019-05-05T00:47:18.734Z,0
2019-05-05T00:48:20.795Z,0
2019-05-05T00:49:24.997Z,0
2019-05-05T00:50:27.151Z,0
2019-05-05T00:51:29.254Z,0
2019-05-05T00:52:31.724Z,0
2019-05-05T00:53:34.337Z,0
2019-05-05T00:54:36.550Z,0
2019-05-05T00:55:38.608Z,0
2019-05-05T00:56:40.784Z,0
2019-05-05T00:57:42.855Z,0
2019-05-05T00:58:47.235Z,0
2019-05-05T00:59:49.321Z,0
2019-05-05T01:00:51.374Z,0
2019-05-05T01:01:55.243Z,0
2019-05-05T01:02:57.773Z,0
2019-05-05T01:03:59.913Z,0
2019-05-05T01:05:04.476Z,0
2019-05-05T01:06:06.650Z,0
2019-05-05T01:07:08.767Z,0
2019-05-05T01:08:10.827Z,0
2019-05-05T01:09:14.702Z,0
2019-05-05T01:10:16.932Z,0
2019-05-05T01:11:18.999Z,0
2019-05-05T01:12:21.106Z,0
2019-05-05T01:13:25.408Z,0
2019-05-05T01:14:27.535Z,0
2019-05-05T01:15:29.602Z,0
2019-05-05T01:16:31.677Z,0
2019-05-05T01:17:34.490Z,0
2019-05-05T01:18:36.667Z,0
2019-05-05T01:19:38.786Z,0
2019-05-05T01:20:40.864Z,0
2019-05-05T01:21:45.196Z,0
2019-05-05T01:22:47.490Z,0
2019-05-05T01:23:49.557Z,0
2019-05-05T01:24:51.673Z,0
2019-05-05T01:25:54.361Z,0
2019-05-05T01:26:56.614Z,0
2019-05-05T01:27:58.682Z,0
2019-05-05T01:29:00.735Z,0
2019-05-05T01:30:04.576Z,0
2019-05-05T01:31:07.130Z,0
2019-05-05T01:32:09.244Z,0
2019-05-05T01:33:11.318Z,0
2019-05-05T01:34:15.563Z,0
2019-05-05T01:35:17.702Z,0
2019-05-05T01:36:19.774Z,0
2019-05-05T01:37:21.908Z,0
2019-05-05T01:38:24.694Z,0
2019-05-05T01:39:26.914Z,0
2019-05-05T01:40:29.036Z,0
2019-05-05T01:41:31.094Z,0
2019-05-05T01:42:35.065Z,0
2019-05-05T01:43:37.336Z,0
2019-05-05T01:44:39.681Z,0
2019-05-05T01:45:41.812Z,0
2019-05-05T01:46:44.480Z,0
2019-05-05T01:47:46.695Z,0
2019-05-05T01:48:48.762Z,0
2019-05-05T01:49:50.840Z,0
2019-05-05T01:50:54.348Z,0
2019-05-05T01:51:56.523Z,0
2019-05-05T01:52:58.954Z,0
2019-05-05T01:54:01.041Z,0
2019-05-05T01:55:05.083Z,0
2019-05-05T01:56:07.345Z,0
2019-05-05T01:57:09.409Z,0
2019-05-05T01:58:11.564Z,0
2019-05-05T01:59:14.318Z,0
2019-05-05T02:00:16.881Z,0
2019-05-05T02:01:18.946Z,0
2019-05-05T02:02:21.285Z,0
2019-05-05T02:03:24.354Z,0
2019-05-05T02:04:26.932Z,0
2019-05-05T02:05:29.055Z,0
2019-05-05T02:06:31.179Z,0
2019-05-05T02:07:34.214Z,0
2019-05-05T02:08:36.998Z,0
2019-05-05T02:09:39.067Z,0
2019-05-05T02:10:41.206Z,0
2019-05-05T02:11:45.248Z,0
2019-05-05T02:12:47.470Z,0
2019-05-05T02:13:49.538Z,0
2019-05-05T02:14:51.650Z,0
2019-05-05T02:15:56.491Z,0
2019-05-05T02:16:59.207Z,0
2019-05-05T02:18:01.327Z,0
2019-05-05T02:19:05.974Z,0
2019-05-05T02:20:08.095Z,0
2019-05-05T02:21:10.718Z,0
2019-05-05T02:22:14.610Z,0
2019-05-05T02:23:16.825Z,0
2019-05-05T02:24:18.889Z,0
2019-05-05T02:25:21.318Z,0
2019-05-05T02:26:24.498Z,0
2019-05-05T02:27:26.782Z,0
2019-05-05T02:28:29.109Z,0
2019-05-05T02:29:31.181Z,0
2019-05-05T02:30:35.884Z,0
2019-05-05T02:31:38.749Z,0
2019-05-05T02:32:41.531Z,0
2019-05-05T02:33:47.214Z,0
2019-05-05T02:34:49.294Z,0
2019-05-05T02:35:51.864Z,0
2019-05-05T02:36:57.694Z,0
2019-05-05T02:38:00.508Z,0
2019-05-05T02:39:05.285Z,0
2019-05-05T02:40:07.779Z,0
2019-05-05T02:41:10.564Z,0
2019-05-05T02:42:14.584Z,0
2019-05-05T02:43:16.903Z,0
2019-05-05T02:44:18.995Z,0
2019-05-05T02:45:21.333Z,0
2019-05-05T02:46:26.802Z,0
2019-05-05T02:47:29.563Z,0
2019-05-05T02:48:31.686Z,0
2019-05-05T02:49:36.937Z,0
2019-05-05T02:50:52.263Z,0
2019-05-05T02:52:08.789Z,0
2019-05-05T02:53:10.817Z,0
2019-05-05T02:54:13.652Z,0
2019-05-05T02:55:16.147Z,4
2019-05-05T02:56:18.987Z,4
2019-05-05T02:57:21.342Z,0
2019-05-05T02:58:26.062Z,4
2019-05-05T02:59:28.145Z,4
2019-05-05T03:00:30.286Z,0
2019-05-05T03:01:34.022Z,4
2019-05-05T03:02:36.512Z,8
2019-05-05T03:03:38.622Z,4
2019-05-05T03:04:40.701Z,4
2019-05-05T03:05:43.444Z,8
2019-05-05T03:06:45.572Z,8
2019-05-05T03:07:47.643Z,12
2019-05-05T03:08:50.033Z,12
2019-05-05T03:09:52.109Z,12
2019-05-05T03:10:56.444Z,16
2019-05-05T03:11:58.514Z,16
2019-05-05T03:13:01.020Z,24
2019-05-05T03:14:04.045Z,28
2019-05-05T03:15:06.263Z,28
2019-05-05T03:16:08.369Z,32
2019-05-05T03:17:10.448Z,36
2019-05-05T03:18:13.419Z,40
2019-05-05T03:19:15.599Z,48
2019-05-05T03:20:17.728Z,56
2019-05-05T03:21:19.795Z,60
2019-05-05T03:22:23.654Z,72
2019-05-05T03:23:25.890Z,76
2019-05-05T03:24:27.973Z,88
2019-05-05T03:25:30.096Z,96
2019-05-05T03:26:33.987Z,108
2019-05-05T03:27:36.170Z,120
2019-05-05T03:28:38.251Z,132
2019-05-05T03:29:40.317Z,144
2019-05-05T03:30:45.295Z,160
2019-05-05T03:31:47.890Z,176
2019-05-05T03:32:49.956Z,192
2019-05-05T03:33:54.869Z,208
2019-05-05T03:34:57.542Z,228
2019-05-05T03:36:00.035Z,248
2019-05-05T03:37:03.976Z,268
2019-05-05T03:38:06.364Z,292
2019-05-05T03:39:08.419Z,312
2019-05-05T03:40:10.507Z,336
2019-05-05T03:41:13.570Z,360
2019-05-05T03:42:16.100Z,388
2019-05-05T03:43:18.159Z,416
2019-05-05T03:44:20.223Z,440
2019-05-05T03:45:23.427Z,472
2019-05-05T03:46:25.605Z,500
2019-05-05T03:47:27.945Z,528
2019-05-05T03:48:30.096Z,564
2019-05-05T03:49:33.773Z,592
2019-05-05T03:50:36.307Z,624
2019-05-05T03:51:38.414Z,656
2019-05-05T03:52:40.782Z,688
2019-05-05T03:53:45.060Z,720
2019-05-05T03:54:47.123Z,752
2019-05-05T03:55:49.195Z,788
2019-05-05T03:56:51.241Z,820
2019-05-05T03:57:55.498Z,856
2019-05-05T03:58:58.336Z,892
2019-05-05T04:00:00.758Z,924
2019-05-05T04:01:04.245Z,960
2019-05-05T04:02:06.688Z,996
2019-05-05T04:03:08.758Z,1036
2019-05-05T04:04:11.281Z,1068
2019-05-05T04:05:15.273Z,1104
2019-05-05T04:06:17.324Z,1140
2019-05-05T04:07:19.424Z,1176
2019-05-05T04:08:23.472Z,1208
2019-05-05T04:09:25.715Z,1244
2019-05-05T04:10:28.172Z,1276
2019-05-05T04:11:30.571Z,1316
2019-05-05T04:12:34.379Z,1348
2019-05-05T04:13:37.102Z,1380
2019-05-05T04:14:39.205Z,1416
2019-05-05T04:15:41.262Z,1452
2019-05-05T04:16:45.430Z,1484
2019-05-05T04:17:47.515Z,1520
2019-05-05T04:18:50.208Z,1548
2019-05-05T04:19:54.128Z,1580
2019-05-05T04:20:56.334Z,1616
2019-05-05T04:21:58.451Z,1648
2019-05-05T04:23:00.511Z,1684
2019-05-05T04:24:05.042Z,1712
2019-05-05T04:25:07.386Z,1744
2019-05-05T04:26:09.465Z,1772
2019-05-05T04:27:11.592Z,1804
2019-05-05T04:28:16.450Z,1836
2019-05-05T04:29:18.576Z,1868
2019-05-05T04:30:20.905Z,1896
2019-05-05T04:31:25.333Z,1932
2019-05-05T04:32:27.454Z,1956
2019-05-05T04:33:29.504Z,1984
2019-05-05T04:34:32.006Z,2012
2019-05-05T04:35:36.376Z,2040
2019-05-05T04:36:38.499Z,2068
2019-05-05T04:37:40.578Z,2096
2019-05-05T04:38:45.020Z,2128
2019-05-05T04:39:47.120Z,2152
2019-05-05T04:40:49.193Z,2184
2019-05-05T04:41:51.274Z,2212
2019-05-05T04:42:55.607Z,2240
2019-05-05T04:43:57.678Z,2264
2019-05-05T04:44:59.747Z,2292
2019-05-05T04:46:02.081Z,2320
2019-05-05T04:47:06.447Z,2348
2019-05-05T04:48:08.800Z,2372
2019-05-05T04:49:10.878Z,2404
2019-05-05T04:50:17.948Z,2428
2019-05-05T04:51:20.364Z,2456
2019-05-05T04:52:23.603Z,2484
2019-05-05T04:53:25.785Z,2508
2019-05-05T04:54:27.867Z,2536
2019-05-05T04:55:29.913Z,2560
2019-05-05T04:56:34.079Z,2584
2019-05-05T04:57:36.752Z,2608
2019-05-05T04:58:38.827Z,2632
2019-05-05T04:59:40.937Z,2656
2019-05-05T05:00:44.088Z,2680
2019-05-05T05:01:46.307Z,2704
2019-05-05T05:02:48.452Z,2728
2019-05-05T05:03:50.499Z,2756
2019-05-05T05:04:53.504Z,2776
2019-05-05T05:05:56.076Z,2800
2019-05-05T05:06:58.138Z,2824
2019-05-05T05:08:00.204Z,2848
2019-05-05T05:09:04.017Z,2868
2019-05-05T05:10:06.168Z,2892
2019-05-05T05:11:08.246Z,2916
2019-05-05T05:12:10.594Z,2940
2019-05-05T05:13:13.820Z,2960
2019-05-05T05:14:16.040Z,2988
2019-05-05T05:15:18.182Z,3004
2019-05-05T05:16:20.231Z,3028
2019-05-05T05:17:24.684Z,3052
2019-05-05T05:18:27.271Z,3076
2019-05-05T05:19:29.328Z,3100
2019-05-05T05:20:31.486Z,3120
2019-05-05T05:21:35.855Z,3140
2019-05-05T05:22:37.986Z,3160
2019-05-05T05:23:40.042Z,3180
2019-05-05T05:24:42.145Z,3200
2019-05-05T05:25:46.560Z,3224
2019-05-05T05:26:48.734Z,3240
2019-05-05T05:27:50.875Z,3260
2019-05-05T05:28:55.508Z,3272
2019-05-05T05:29:57.655Z,3288
2019-05-05T05:31:00.003Z,3296
2019-05-05T05:32:03.912Z,3308
2019-05-05T05:33:06.657Z,3336
2019-05-05T05:34:09.054Z,3368
2019-05-05T05:35:11.175Z,3396
2019-05-05T05:36:15.849Z,3436
2019-05-05T05:37:17.999Z,3472
2019-05-05T05:38:20.054Z,3516
2019-05-05T05:39:22.133Z,3620
2019-05-05T05:40:26.375Z,3688
2019-05-05T05:41:28.448Z,3744
2019-05-05T05:42:30.579Z,3792
2019-05-05T05:43:35.173Z,3836
2019-05-05T05:44:37.232Z,3880
2019-05-05T05:45:39.351Z,3956
2019-05-05T05:46:41.430Z,4032
2019-05-05T05:47:45.550Z,4084
2019-05-05T05:48:47.605Z,4136
2019-05-05T05:49:50.074Z,4172
2019-05-05T05:50:53.643Z,4204
2019-05-05T05:51:55.834Z,4256
2019-05-05T05:52:57.974Z,4288
2019-05-05T05:54:00.581Z,4316
2019-05-05T05:55:04.853Z,4356
2019-05-05T05:56:06.987Z,4396
2019-05-05T05:57:09.456Z,4432
2019-05-05T05:58:13.823Z,4460
2019-05-05T05:59:16.418Z,4488
2019-05-05T06:00:18.496Z,4512
2019-05-05T06:01:21.441Z,4536
2019-05-05T06:02:26.135Z,4572
2019-05-05T06:03:28.244Z,4600
2019-05-05T06:04:30.317Z,4624
2019-05-05T06:05:34.265Z,4648
2019-05-05T06:06:36.767Z,4680
2019-05-05T06:07:38.848Z,4712
2019-05-05T06:08:41.242Z,4744
2019-05-05T06:09:45.669Z,4776
2019-05-05T06:10:47.773Z,4804
2019-05-05T06:11:49.858Z,4844
2019-05-05T06:12:52.041Z,4868
2019-05-05T06:13:56.743Z,4900
2019-05-05T06:14:59.107Z,4928
2019-05-05T06:16:01.227Z,4956
2019-05-05T06:17:06.098Z,4988
2019-05-05T06:18:08.210Z,5012
2019-05-05T06:19:10.438Z,5036
2019-05-05T06:20:14.465Z,5064
2019-05-05T06:21:16.955Z,5096
2019-05-05T06:22:28.393Z,5116
2019-05-05T06:23:36.045Z,5152
2019-05-05T06:24:38.163Z,5172
2019-05-05T06:25:40.513Z,5192
2019-05-05T06:26:44.509Z,5204
2019-05-05T06:27:46.784Z,5224
2019-05-05T06:28:48.858Z,5244
2019-05-05T06:29:50.929Z,5260
2019-05-05T06:30:55.609Z,5256
2019-05-05T06:31:57.666Z,5268
2019-05-05T06:33:00.022Z,5272
2019-05-05T06:34:03.677Z,5284
2019-05-05T06:35:05.932Z,5300
2019-05-05T06:36:08.022Z,5324
2019-05-05T06:37:10.075Z,5344
2019-05-05T06:38:13.574Z,5380
2019-05-05T06:39:16.161Z,5404
2019-05-05T06:40:18.573Z,5432
2019-05-05T06:41:21.030Z,5452
2019-05-05T06:42:25.136Z,5476
2019-05-05T06:43:27.213Z,5500
2019-05-05T06:44:29.271Z,5528
2019-05-05T06:45:31.355Z,5552
2019-05-05T06:46:35.967Z,5580
2019-05-05T06:47:38.032Z,5616
2019-05-05T06:48:40.452Z,5640
2019-05-05T06:49:45.224Z,5664
2019-05-05T06:50:47.579Z,5684
2019-05-05T06:51:49.660Z,5704
2019-05-05T06:52:53.503Z,5728
2019-05-05T06:53:56.449Z,5764
2019-05-05T06:54:58.914Z,5800
2019-05-05T06:56:01.312Z,5840
2019-05-05T06:57:05.728Z,5876
2019-05-05T06:58:08.089Z,5904
2019-05-05T06:59:10.160Z,5940
2019-05-05T07:00:13.936Z,5976
2019-05-05T07:01:16.388Z,6004
2019-05-05T07:02:19.245Z,6040
2019-05-05T07:03:21.756Z,6068
2019-05-05T07:04:26.184Z,6104
2019-05-05T07:05:28.255Z,6140
2019-05-05T07:06:30.633Z,6176
2019-05-05T07:07:34.226Z,6200
2019-05-05T07:08:36.749Z,6224
2019-05-05T07:09:38.851Z,6244
2019-05-05T07:10:40.955Z,6272
2019-05-05T07:11:43.630Z,6316
2019-05-05T07:12:45.834Z,6348
2019-05-05T07:13:47.971Z,6368
2019-05-05T07:14:50.339Z,6392
2019-05-05T07:15:54.213Z,6420
2019-05-05T07:16:56.386Z,6432
2019-05-05T07:17:58.449Z,6464
2019-05-05T07:19:01.590Z,6500
2019-05-05T07:20:06.341Z,6548
2019-05-05T07:21:08.457Z,6588
2019-05-05T07:22:10.807Z,6604
2019-05-05T07:23:15.270Z,6624
2019-05-05T07:24:17.355Z,6664
2019-05-05T07:25:19.448Z,6708
2019-05-05T07:26:23.720Z,6760
2019-05-05T07:27:26.563Z,6796
2019-05-05T07:28:28.970Z,6820
2019-05-05T07:29:31.062Z,6852
2019-05-05T07:30:35.863Z,6896
2019-05-05T07:31:38.228Z,6936
2019-05-05T07:32:40.744Z,6964
2019-05-05T07:33:43.759Z,6972
2019-05-05T07:34:45.951Z,6964
2019-05-05T07:35:56.551Z,6960
2019-05-05T07:37:08.081Z,7012
2019-05-05T07:38:10.175Z,7024
2019-05-05T07:39:14.124Z,7056
2019-05-05T07:40:16.467Z,7112
2019-05-05T07:41:18.945Z,7136
2019-05-05T07:42:21.717Z,7192
2019-05-05T07:43:26.535Z,7232
2019-05-05T07:44:29.634Z,7232
2019-05-05T07:45:34.098Z,7268
2019-05-05T07:46:36.652Z,7300
2019-05-05T07:47:38.746Z,7328
2019-05-05T07:48:40.875Z,7376
2019-05-05T07:49:45.372Z,7416
2019-05-05T07:50:58.041Z,7440
2019-05-05T07:52:07.855Z,7488
2019-05-05T07:53:14.761Z,7532
2019-05-05T07:54:19.798Z,7572
2019-05-05T07:55:23.741Z,7628
2019-05-05T07:56:25.920Z,7656
2019-05-05T07:57:28.589Z,7696
2019-05-05T07:58:30.722Z,7744
2019-05-05T07:59:34.003Z,7772
2019-05-05T08:00:36.271Z,7848
2019-05-05T08:01:38.331Z,7956
2019-05-05T08:02:40.405Z,8020
2019-05-05T08:03:45.468Z,8056
2019-05-05T08:04:47.926Z,8144
2019-05-05T08:05:50.449Z,8208
2019-05-05T08:06:53.815Z,8252
2019-05-05T08:07:56.373Z,8548
2019-05-05T08:08:58.479Z,13720
2019-05-05T08:10:00.576Z,35584
2019-05-05T08:11:04.752Z,34336
2019-05-05T08:12:06.959Z,18976
2019-05-05T08:13:09.481Z,14112
2019-05-05T08:16:18.608Z,18720
2019-05-05T08:17:20.704Z,20992
2019-05-05T08:18:24.989Z,25056
2019-05-05T08:19:27.080Z,23840
2019-05-05T08:20:29.157Z,39168
2019-05-05T08:21:31.830Z,71200
2019-05-05T08:22:36.344Z,84096
2019-05-05T08:23:38.487Z,91360
2019-05-05T08:24:40.952Z,91968
2019-05-05T08:25:45.447Z,91200
2019-05-05T08:26:47.672Z,90496
2019-05-05T08:27:50.038Z,92096
2019-05-05T08:28:53.972Z,95360
2019-05-05T08:29:56.708Z,95616
2019-05-05T08:30:58.788Z,96000
2019-05-05T08:32:01.220Z,98272
2019-05-05T08:33:05.604Z,101760
2019-05-05T08:34:08.058Z,100000
2019-05-05T08:35:10.126Z,96032
2019-05-05T08:36:12.210Z,92000
2019-05-05T08:37:16.573Z,90720
2019-05-05T08:38:18.933Z,20448
2019-05-05T08:39:22.138Z,44224
2019-05-05T08:40:26.453Z,97024
2019-05-05T08:41:29.004Z,89696
2019-05-05T08:42:31.096Z,92800
2019-05-05T08:43:35.515Z,91136
2019-05-05T08:44:38.057Z,90560
2019-05-05T08:45:40.088Z,34624
2019-05-05T08:46:44.417Z,16832
2019-05-05T08:47:46.701Z,12800
2019-05-05T08:48:48.801Z,12128
2019-05-05T08:49:50.888Z,12984
2019-05-05T08:50:55.285Z,16072
2019-05-05T08:51:57.406Z,107392
2019-05-05T08:52:59.499Z,107392
2019-05-05T08:54:03.669Z,108640
2019-05-05T08:55:06.280Z,55008
2019-05-05T08:56:08.383Z,45280
2019-05-05T08:57:10.510Z,25120
2019-05-05T08:58:14.264Z,37600
2019-05-05T08:59:17.682Z,105888
2019-05-05T09:00:19.786Z,103168
2019-05-05T09:01:23.752Z,105472
2019-05-05T09:02:26.049Z,106432
2019-05-05T09:03:28.452Z,106336
2019-05-05T09:04:30.607Z,110080
2019-05-05T09:05:35.108Z,109792
2019-05-05T09:06:37.796Z,108800
2019-05-05T09:07:40.245Z,107232
2019-05-05T09:08:44.056Z,110592
2019-05-05T09:09:46.640Z,112768
2019-05-05T09:10:52.096Z,113120
2019-05-05T09:11:57.254Z,30240
2019-05-05T09:12:59.384Z,26880
2019-05-05T09:14:01.538Z,36384
2019-05-05T09:15:05.978Z,117408
2019-05-05T09:16:08.155Z,113344
2019-05-05T09:17:10.242Z,86272
2019-05-05T09:18:15.260Z,34208
2019-05-05T09:19:17.516Z,50720
2019-05-05T09:20:19.607Z,103840
2019-05-05T09:21:23.823Z,103776
2019-05-05T09:22:26.070Z,108320
2019-05-05T09:23:28.214Z,109920
2019-05-05T09:24:30.288Z,112512
2019-05-05T09:25:34.117Z,111648
2019-05-05T09:26:36.348Z,112544
2019-05-05T09:27:39.409Z,115392
2019-05-05T09:28:41.550Z,116544
2019-05-05T09:29:46.000Z,116544
2019-05-05T09:30:48.420Z,114624
2019-05-05T09:31:50.712Z,111520
2019-05-05T09:32:55.114Z,107168
2019-05-05T09:33:57.371Z,107392
2019-05-05T09:34:59.463Z,109952
2019-05-05T09:36:01.812Z,111648
2019-05-05T09:37:06.318Z,112800
2019-05-05T09:38:08.741Z,112480
2019-05-05T09:39:10.888Z,113600
2019-05-05T09:40:15.284Z,116768
2019-05-05T09:41:17.521Z,120800
2019-05-05T09:42:19.624Z,119904
2019-05-05T09:43:23.798Z,116288
2019-05-05T09:44:26.202Z,110656
2019-05-05T09:45:28.306Z,106816
2019-05-05T09:46:30.463Z,105376
2019-05-05T09:47:34.333Z,106208
2019-05-05T09:48:36.945Z,104512
2019-05-05T09:49:39.052Z,104160
2019-05-05T09:50:41.631Z,105408
2019-05-05T09:51:46.300Z,106272
2019-05-05T09:52:48.679Z,104416
2019-05-05T09:53:50.856Z,28416
2019-05-05T09:54:55.437Z,32992
2019-05-05T09:55:58.328Z,112928
2019-05-05T09:57:00.748Z,59104
2019-05-05T09:58:06.552Z,40288
2019-05-05T09:59:09.532Z,58464
2019-05-05T10:00:13.738Z,113856
2019-05-05T10:01:17.155Z,112832
2019-05-05T10:02:19.228Z,113248
2019-05-05T10:03:21.613Z,111648
2019-05-05T10:04:24.257Z,109600
2019-05-05T10:05:26.453Z,112064
2019-05-05T10:06:28.607Z,99936
2019-05-05T10:07:30.678Z,44384
2019-05-05T10:08:34.047Z,27040
2019-05-05T10:09:36.315Z,28384
2019-05-05T10:10:38.442Z,25760
2019-05-05T10:11:40.590Z,33056
2019-05-05T10:12:44.517Z,109600
2019-05-05T10:13:46.809Z,124992
2019-05-05T10:14:48.905Z,123648
2019-05-05T10:15:51.025Z,121600
2019-05-05T10:16:54.027Z,117920
2019-05-05T10:17:56.527Z,114272
2019-05-05T10:18:58.664Z,111392
2019-05-05T10:20:01.450Z,109504
2019-05-05T10:21:06.584Z,111008
2019-05-05T10:22:08.681Z,22144
2019-05-05T10:23:11.093Z,20576
2019-05-05T10:24:27.628Z,80672
2019-05-05T10:25:35.541Z,26112
2019-05-05T10:26:37.640Z,28512
2019-05-05T10:27:44.712Z,21760
2019-05-05T10:28:49.715Z,23776
2019-05-05T10:29:51.813Z,22880
2019-05-05T10:30:56.420Z,59008
2019-05-05T10:31:58.783Z,105312
2019-05-05T10:33:00.892Z,102688
2019-05-05T10:34:05.516Z,105312
2019-05-05T10:35:07.608Z,108064
2019-05-05T10:36:09.736Z,107360
2019-05-05T10:37:14.036Z,107680
2019-05-05T10:38:16.367Z,107360
2019-05-05T10:39:18.457Z,108800
2019-05-05T10:40:20.546Z,110976
2019-05-05T10:41:23.795Z,112192
2019-05-05T10:42:26.018Z,114912
2019-05-05T10:43:28.175Z,116384
2019-05-05T10:44:30.252Z,116416
2019-05-05T10:45:32.336Z,114496
2019-05-05T10:46:35.142Z,110560
2019-05-05T10:47:37.242Z,106464
2019-05-05T10:48:39.396Z,108640
2019-05-05T10:49:41.491Z,109760
2019-05-05T10:50:46.058Z,108256
2019-05-05T10:51:48.154Z,109152
2019-05-05T10:52:50.264Z,110240
2019-05-05T10:53:54.933Z,109920
2019-05-05T10:54:57.318Z,107680
2019-05-05T10:55:59.460Z,104352
2019-05-05T10:57:01.502Z,106496
2019-05-05T10:58:06.496Z,108064
2019-05-05T10:59:08.665Z,109184
2019-05-05T11:00:13.091Z,113344
2019-05-05T11:01:17.589Z,116160
2019-05-05T11:02:19.697Z,119712
2019-05-05T11:03:23.691Z,116288
2019-05-05T11:04:25.913Z,111040
2019-05-05T11:05:28.013Z,109568
2019-05-05T11:06:30.153Z,111520
2019-05-05T11:07:34.070Z,113408
2019-05-05T11:08:36.286Z,107840
2019-05-05T11:09:38.689Z,106720
2019-05-05T11:10:40.774Z,24000
2019-05-05T11:11:43.838Z,20256
2019-05-05T11:12:46.054Z,19904
2019-05-05T11:13:48.201Z,21536
2019-05-05T11:14:50.316Z,24736
2019-05-05T11:15:54.500Z,26912
2019-05-05T11:16:57.034Z,38688
2019-05-05T11:17:59.139Z,119200
2019-05-05T11:19:01.557Z,115584
2019-05-05T11:20:06.332Z,114112
2019-05-05T11:21:08.477Z,113824
2019-05-05T11:22:10.559Z,115424
2019-05-05T11:23:14.799Z,117600
2019-05-05T11:24:17.397Z,117472
2019-05-05T11:25:19.504Z,115136
2019-05-05T11:26:21.992Z,113536
2019-05-05T11:27:26.297Z,113056
2019-05-05T11:28:28.477Z,117952
2019-05-05T11:29:30.561Z,112032
2019-05-05T11:30:33.974Z,34272
2019-05-05T11:31:36.535Z,32544
2019-05-05T11:32:38.634Z,90496
2019-05-05T11:33:40.792Z,116032
2019-05-05T11:34:45.809Z,114432
2019-05-05T11:35:47.969Z,111360
2019-05-05T11:36:50.059Z,109472
2019-05-05T11:37:54.084Z,108192
2019-05-05T11:38:56.435Z,27616
2019-05-05T11:39:58.799Z,32608
2019-05-05T11:41:01.342Z,23968
2019-05-05T11:42:04.350Z,20320
2019-05-05T11:43:07.312Z,21088
2019-05-05T11:44:09.779Z,118944
2019-05-05T11:45:14.710Z,112416
2019-05-05T11:46:17.041Z,92160
2019-05-05T11:47:19.121Z,30816
2019-05-05T11:48:21.297Z,21600
2019-05-05T11:49:26.096Z,20160
2019-05-05T11:50:28.203Z,19808
2019-05-05T11:51:30.300Z,20896
2019-05-05T11:52:33.668Z,47936
2019-05-05T11:53:35.907Z,102880
2019-05-05T11:54:37.997Z,104480
2019-05-05T11:55:40.417Z,74368
2019-05-05T11:56:44.444Z,26816
2019-05-05T11:57:47.053Z,24320
2019-05-05T11:58:49.197Z,28384
2019-05-05T11:59:51.279Z,34656
2019-05-05T12:00:55.507Z,114560
2019-05-05T12:01:57.597Z,115776
2019-05-05T12:02:59.755Z,108512
2019-05-05T12:04:03.805Z,105632
2019-05-05T12:05:06.741Z,104032
2019-05-05T12:06:08.887Z,101152
2019-05-05T12:07:11.214Z,21216
2019-05-05T12:08:14.590Z,97216
2019-05-05T12:09:17.125Z,104576
2019-05-05T12:10:19.225Z,104384
2019-05-05T12:11:21.422Z,104544
2019-05-05T12:12:25.919Z,101888
2019-05-05T12:13:28.370Z,100672
2019-05-05T12:14:30.475Z,104512
2019-05-05T12:15:34.098Z,107264
2019-05-05T12:16:36.277Z,103712
2019-05-05T12:17:38.694Z,96704
2019-05-05T12:18:40.834Z,96480
2019-05-05T12:19:43.503Z,97632
2019-05-05T12:20:45.690Z,92992
2019-05-05T12:21:47.798Z,95072
2019-05-05T12:22:49.873Z,98016
2019-05-05T12:23:51.967Z,98976
2019-05-05T12:24:56.499Z,98976
2019-05-05T12:25:58.638Z,95360
2019-05-05T12:27:00.730Z,58976
2019-05-05T12:28:05.143Z,28960
2019-05-05T12:29:07.202Z,58016
2019-05-05T12:30:09.288Z,101696
2019-05-05T12:31:13.944Z,100672
2019-05-05T12:32:16.241Z,102528
2019-05-05T12:33:18.375Z,51424
2019-05-05T12:34:20.760Z,102592
2019-05-05T12:35:25.390Z,28960
2019-05-05T12:36:27.533Z,21600
2019-05-05T12:37:29.630Z,19808
2019-05-05T12:38:31.748Z,17052
2019-05-05T12:39:36.773Z,16040
2019-05-05T12:40:38.916Z,16412
2019-05-05T12:41:41.079Z,17404
2019-05-05T12:42:43.947Z,17780
2019-05-05T12:43:46.153Z,17700
2019-05-05T12:44:48.293Z,17180
2019-05-05T12:45:50.402Z,17124
2019-05-05T12:46:52.519Z,16980
2019-05-05T12:47:54.622Z,21984
2019-05-05T12:48:56.700Z,23872
2019-05-05T12:49:58.850Z,27008
2019-05-05T12:51:00.920Z,59904
2019-05-05T12:52:04.572Z,77440
2019-05-05T12:53:06.735Z,82720
2019-05-05T12:54:08.818Z,84128
2019-05-05T12:55:10.927Z,84352
2019-05-05T12:56:15.376Z,85824
2019-05-05T12:57:17.826Z,87872
2019-05-05T12:58:19.935Z,87712
2019-05-05T12:59:22.084Z,88224
2019-05-05T13:00:26.930Z,85248
2019-05-05T13:01:29.010Z,81248
2019-05-05T13:02:31.093Z,81824
2019-05-05T13:03:34.571Z,83648
2019-05-05T13:04:37.418Z,84544
2019-05-05T13:05:39.777Z,84896
2019-05-05T13:06:41.862Z,85920
2019-05-05T13:07:46.539Z,87136
2019-05-05T13:08:48.620Z,88960
2019-05-05T13:09:50.767Z,90080
2019-05-05T13:10:53.419Z,86816
2019-05-05T13:11:55.625Z,88672
2019-05-05T13:12:57.724Z,93888
2019-05-05T13:13:59.818Z,91648
2019-05-05T13:15:03.871Z,88352
2019-05-05T13:16:06.731Z,86976
2019-05-05T13:17:08.875Z,87104
2019-05-05T13:18:10.964Z,85280
2019-05-05T13:19:15.475Z,81728
2019-05-05T13:20:17.586Z,80512
2019-05-05T13:21:19.659Z,81568
2019-05-05T13:22:21.843Z,82400
2019-05-05T13:23:27.494Z,81856
2019-05-05T13:24:29.930Z,77760
2019-05-05T13:25:33.599Z,80896
2019-05-05T13:26:36.075Z,83008
2019-05-05T13:27:38.232Z,75424
2019-05-05T13:28:40.600Z,81152
2019-05-05T13:29:45.082Z,20928
2019-05-05T13:30:47.168Z,76320
2019-05-05T13:31:49.630Z,72576
2019-05-05T13:32:51.777Z,72384
2019-05-05T13:33:56.133Z,74592
2019-05-05T13:34:58.246Z,75328
2019-05-05T13:36:00.348Z,78592
2019-05-05T13:37:03.586Z,80736
2019-05-05T13:38:05.759Z,78944
2019-05-05T13:39:08.145Z,76800
2019-05-05T13:40:10.311Z,78208
2019-05-05T13:41:12.396Z,81792
2019-05-05T13:42:14.509Z,73280
2019-05-05T13:43:16.603Z,13780
2019-05-05T13:44:18.967Z,73792
2019-05-05T13:45:21.153Z,80320
2019-05-05T13:46:25.370Z,14512
2019-05-05T13:47:27.553Z,80576
2019-05-05T13:48:29.667Z,79264
2019-05-05T13:49:31.786Z,79616
2019-05-05T13:50:34.545Z,78432
2019-05-05T13:51:36.874Z,78848
2019-05-05T13:52:39.042Z,74752
2019-05-05T13:53:41.122Z,73792
2019-05-05T13:54:43.847Z,74464
2019-05-05T13:55:46.205Z,76064
2019-05-05T13:56:48.600Z,77472
2019-05-05T13:57:50.736Z,76768
2019-05-05T13:58:52.833Z,12452
2019-05-05T13:59:54.986Z,15232
2019-05-05T14:00:57.090Z,11780
2019-05-05T14:01:59.171Z,12080
2019-05-05T14:03:01.281Z,13456